sensor_id;sensor_type;location;lat;lon;timestamp;P1;durP1;ratioP1;P2;durP2;ratioP2
27003;SDS011;14546;47.590;19.022;2024-03-29T00:01:16;2.30;;;0.95;;
27003;SDS011;14546;47.590;19.022;2024-03-29T00:03:42;1.52;;;1.30;;
27003;SDS011;14546;47.590;19.022;2024-03-29T00:06:08;1.42;;;1.33;;
27003;SDS011;14546;47.590;19.022;2024-03-29T00:08:35;1.48;;;1.00;;
27003;SDS011;14546;47.590;19.022;2024-03-29T00:11:00;2.45;;;1.13;;
27003;SDS011;14546;47.590;19.022;2024-03-29T00:13:27;3.15;;;1.30;;
27003;SDS011;14546;47.590;19.022;2024-03-29T00:15:53;1.33;;;1.10;;
27003;SDS011;14546;47.590;19.022;2024-03-29T00:18:19;1.73;;;1.15;;
27003;SDS011;14546;47.590;19.022;2024-03-29T00:20:44;1.50;;;1.10;;
27003;SDS011;14546;47.590;19.022;2024-03-29T00:23:10;1.17;;;1.05;;
27003;SDS011;14546;47.590;19.022;2024-03-29T00:25:36;1.02;;;0.93;;
27003;SDS011;14546;47.590;19.022;2024-03-29T00:28:01;2.53;;;0.95;;
27003;SDS011;14546;47.590;19.022;2024-03-29T00:30:28;1.67;;;1.15;;
27003;SDS011;14546;47.590;19.022;2024-03-29T00:32:54;4.22;;;1.27;;
27003;SDS011;14546;47.590;19.022;2024-03-29T00:35:20;1.35;;;1.10;;
27003;SDS011;14546;47.590;19.022;2024-03-29T00:37:48;1.00;;;0.70;;
27003;SDS011;14546;47.590;19.022;2024-03-29T00:40:15;1.60;;;0.90;;
27003;SDS011;14546;47.590;19.022;2024-03-29T00:42:41;1.00;;;0.70;;
27003;SDS011;14546;47.590;19.022;2024-03-29T00:45:08;2.00;;;0.70;;
27003;SDS011;14546;47.590;19.022;2024-03-29T00:47:34;1.58;;;1.00;;
27003;SDS011;14546;47.590;19.022;2024-03-29T00:50:00;0.82;;;0.70;;
27003;SDS011;14546;47.590;19.022;2024-03-29T00:52:26;0.80;;;0.75;;
27003;SDS011;14546;47.590;19.022;2024-03-29T00:54:52;2.70;;;0.90;;
27003;SDS011;14546;47.590;19.022;2024-03-29T00:57:18;1.25;;;0.70;;
27003;SDS011;14546;47.590;19.022;2024-03-29T00:59:45;1.08;;;0.70;;
27003;SDS011;14546;47.590;19.022;2024-03-29T01:02:12;0.95;;;0.80;;
27003;SDS011;14546;47.590;19.022;2024-03-29T01:04:38;0.77;;;0.60;;
27003;SDS011;14546;47.590;19.022;2024-03-29T01:07:06;1.55;;;0.80;;
27003;SDS011;14546;47.590;19.022;2024-03-29T01:09:32;1.02;;;0.68;;
27003;SDS011;14546;47.590;19.022;2024-03-29T01:11:57;1.23;;;1.08;;
27003;SDS011;14546;47.590;19.022;2024-03-29T01:14:24;0.57;;;0.50;;
27003;SDS011;14546;47.590;19.022;2024-03-29T01:16:50;2.35;;;0.70;;
27003;SDS011;14546;47.590;19.022;2024-03-29T01:19:16;1.00;;;0.80;;
27003;SDS011;14546;47.590;19.022;2024-03-29T01:21:41;1.15;;;0.88;;
27003;SDS011;14546;47.590;19.022;2024-03-29T01:24:07;0.68;;;0.60;;
27003;SDS011;14546;47.590;19.022;2024-03-29T01:26:33;1.00;;;0.70;;
27003;SDS011;14546;47.590;19.022;2024-03-29T01:28:59;0.60;;;0.60;;
27003;SDS011;14546;47.590;19.022;2024-03-29T01:31:24;0.95;;;0.75;;
27003;SDS011;14546;47.590;19.022;2024-03-29T01:33:51;0.60;;;0.60;;
27003;SDS011;14546;47.590;19.022;2024-03-29T01:36:16;2.15;;;0.70;;
27003;SDS011;14546;47.590;19.022;2024-03-29T01:38:42;2.55;;;0.90;;
27003;SDS011;14546;47.590;19.022;2024-03-29T01:41:10;3.10;;;0.90;;
27003;SDS011;14546;47.590;19.022;2024-03-29T01:43:37;1.13;;;0.90;;
27003;SDS011;14546;47.590;19.022;2024-03-29T01:46:03;1.48;;;0.70;;
27003;SDS011;14546;47.590;19.022;2024-03-29T01:48:32;1.80;;;0.70;;
27003;SDS011;14546;47.590;19.022;2024-03-29T01:50:58;2.40;;;0.98;;
27003;SDS011;14546;47.590;19.022;2024-03-29T01:53:26;1.23;;;0.80;;
27003;SDS011;14546;47.590;19.022;2024-03-29T01:55:53;1.00;;;0.85;;
27003;SDS011;14546;47.590;19.022;2024-03-29T01:58:19;1.40;;;0.90;;
27003;SDS011;14546;47.590;19.022;2024-03-29T02:00:51;2.45;;;0.70;;
27003;SDS011;14546;47.590;19.022;2024-03-29T02:03:22;1.20;;;0.95;;
27003;SDS011;14546;47.590;19.022;2024-03-29T02:05:49;1.77;;;0.82;;
27003;SDS011;14546;47.590;19.022;2024-03-29T02:08:17;2.85;;;0.82;;
27003;SDS011;14546;47.590;19.022;2024-03-29T02:10:43;3.28;;;1.20;;
27003;SDS011;14546;47.590;19.022;2024-03-29T02:13:11;2.53;;;0.82;;
27003;SDS011;14546;47.590;19.022;2024-03-29T02:15:38;1.33;;;0.90;;
27003;SDS011;14546;47.590;19.022;2024-03-29T02:18:05;1.00;;;0.95;;
27003;SDS011;14546;47.590;19.022;2024-03-29T02:20:35;1.00;;;0.90;;
27003;SDS011;14546;47.590;19.022;2024-03-29T02:23:16;2.75;;;1.00;;
27003;SDS011;14546;47.590;19.022;2024-03-29T02:25:48;1.13;;;0.98;;
27003;SDS011;14546;47.590;19.022;2024-03-29T02:28:13;3.03;;;1.08;;
27003;SDS011;14546;47.590;19.022;2024-03-29T02:30:40;0.93;;;0.90;;
27003;SDS011;14546;47.590;19.022;2024-03-29T02:33:06;4.88;;;0.98;;
27003;SDS011;14546;47.590;19.022;2024-03-29T02:35:31;1.92;;;0.90;;
27003;SDS011;14546;47.590;19.022;2024-03-29T02:37:57;2.22;;;0.95;;
27003;SDS011;14546;47.590;19.022;2024-03-29T02:40:23;7.47;;;0.68;;
27003;SDS011;14546;47.590;19.022;2024-03-29T02:42:49;1.13;;;0.80;;
27003;SDS011;14546;47.590;19.022;2024-03-29T02:45:16;1.35;;;1.00;;
27003;SDS011;14546;47.590;19.022;2024-03-29T02:47:42;0.85;;;0.80;;
27003;SDS011;14546;47.590;19.022;2024-03-29T02:50:09;0.82;;;0.70;;
27003;SDS011;14546;47.590;19.022;2024-03-29T02:52:36;1.67;;;0.85;;
27003;SDS011;14546;47.590;19.022;2024-03-29T02:55:02;2.72;;;0.90;;
27003;SDS011;14546;47.590;19.022;2024-03-29T02:57:28;0.88;;;0.82;;
27003;SDS011;14546;47.590;19.022;2024-03-29T02:59:53;1.30;;;0.77;;
27003;SDS011;14546;47.590;19.022;2024-03-29T03:02:19;1.15;;;0.80;;
27003;SDS011;14546;47.590;19.022;2024-03-29T03:04:45;1.00;;;0.73;;
27003;SDS011;14546;47.590;19.022;2024-03-29T03:07:10;1.70;;;0.82;;
27003;SDS011;14546;47.590;19.022;2024-03-29T03:09:55;1.58;;;0.88;;
27003;SDS011;14546;47.590;19.022;2024-03-29T03:12:39;0.73;;;0.73;;
27003;SDS011;14546;47.590;19.022;2024-03-29T03:15:05;0.88;;;0.70;;
27003;SDS011;14546;47.590;19.022;2024-03-29T03:17:32;3.17;;;0.88;;
27003;SDS011;14546;47.590;19.022;2024-03-29T03:19:57;0.90;;;0.80;;
27003;SDS011;14546;47.590;19.022;2024-03-29T03:22:24;3.35;;;0.88;;
27003;SDS011;14546;47.590;19.022;2024-03-29T03:24:50;0.88;;;0.70;;
27003;SDS011;14546;47.590;19.022;2024-03-29T03:27:16;1.38;;;0.95;;
27003;SDS011;14546;47.590;19.022;2024-03-29T03:29:42;0.65;;;0.60;;
27003;SDS011;14546;47.590;19.022;2024-03-29T03:32:08;1.58;;;0.70;;
27003;SDS011;14546;47.590;19.022;2024-03-29T03:34:34;1.30;;;0.88;;
27003;SDS011;14546;47.590;19.022;2024-03-29T03:37:00;1.45;;;0.80;;
27003;SDS011;14546;47.590;19.022;2024-03-29T03:39:25;0.93;;;0.77;;
27003;SDS011;14546;47.590;19.022;2024-03-29T03:41:52;1.65;;;0.85;;
27003;SDS011;14546;47.590;19.022;2024-03-29T03:44:17;1.17;;;0.77;;
27003;SDS011;14546;47.590;19.022;2024-03-29T03:46:44;1.00;;;0.77;;
27003;SDS011;14546;47.590;19.022;2024-03-29T03:49:10;0.63;;;0.60;;
27003;SDS011;14546;47.590;19.022;2024-03-29T03:51:35;1.40;;;1.00;;
27003;SDS011;14546;47.590;19.022;2024-03-29T03:54:02;0.70;;;0.70;;
27003;SDS011;14546;47.590;19.022;2024-03-29T03:56:28;5.70;;;0.90;;
27003;SDS011;14546;47.590;19.022;2024-03-29T03:58:53;0.57;;;0.57;;
27003;SDS011;14546;47.590;19.022;2024-03-29T04:01:19;1.60;;;0.98;;
27003;SDS011;14546;47.590;19.022;2024-03-29T04:03:45;1.08;;;0.88;;
27003;SDS011;14546;47.590;19.022;2024-03-29T04:06:11;4.45;;;0.90;;
27003;SDS011;14546;47.590;19.022;2024-03-29T04:08:36;8.23;;;1.23;;
27003;SDS011;14546;47.590;19.022;2024-03-29T04:11:02;1.05;;;0.95;;
27003;SDS011;14546;47.590;19.022;2024-03-29T04:13:29;1.27;;;0.70;;
27003;SDS011;14546;47.590;19.022;2024-03-29T04:16:01;4.63;;;1.02;;
27003;SDS011;14546;47.590;19.022;2024-03-29T04:18:28;7.18;;;1.13;;
27003;SDS011;14546;47.590;19.022;2024-03-29T04:21:00;1.30;;;0.98;;
27003;SDS011;14546;47.590;19.022;2024-03-29T04:23:27;1.20;;;0.82;;
27003;SDS011;14546;47.590;19.022;2024-03-29T04:25:53;5.53;;;1.23;;
27003;SDS011;14546;47.590;19.022;2024-03-29T04:28:20;0.98;;;0.80;;
27003;SDS011;14546;47.590;19.022;2024-03-29T04:30:59;5.55;;;1.23;;
27003;SDS011;14546;47.590;19.022;2024-03-29T04:33:26;3.42;;;1.15;;
27003;SDS011;14546;47.590;19.022;2024-03-29T04:35:59;3.92;;;1.00;;
27003;SDS011;14546;47.590;19.022;2024-03-29T04:38:25;0.82;;;0.82;;
27003;SDS011;14546;47.590;19.022;2024-03-29T04:40:52;3.00;;;0.90;;
27003;SDS011;14546;47.590;19.022;2024-03-29T04:43:26;3.60;;;1.10;;
27003;SDS011;14546;47.590;19.022;2024-03-29T04:46:02;2.20;;;1.00;;
27003;SDS011;14546;47.590;19.022;2024-03-29T04:48:36;3.53;;;0.98;;
27003;SDS011;14546;47.590;19.022;2024-03-29T04:51:03;2.80;;;1.05;;
27003;SDS011;14546;47.590;19.022;2024-03-29T04:53:30;1.60;;;0.82;;
27003;SDS011;14546;47.590;19.022;2024-03-29T04:55:56;2.25;;;0.80;;
27003;SDS011;14546;47.590;19.022;2024-03-29T04:58:23;0.80;;;0.70;;
27003;SDS011;14546;47.590;19.022;2024-03-29T05:00:53;0.85;;;0.73;;
27003;SDS011;14546;47.590;19.022;2024-03-29T05:03:20;0.70;;;0.70;;
27003;SDS011;14546;47.590;19.022;2024-03-29T05:05:47;1.30;;;0.70;;
27003;SDS011;14546;47.590;19.022;2024-03-29T05:08:15;0.68;;;0.65;;
27003;SDS011;14546;47.590;19.022;2024-03-29T05:10:41;1.90;;;0.60;;
27003;SDS011;14546;47.590;19.022;2024-03-29T05:13:07;0.55;;;0.50;;
27003;SDS011;14546;47.590;19.022;2024-03-29T05:15:33;0.68;;;0.57;;
27003;SDS011;14546;47.590;19.022;2024-03-29T05:18:00;1.15;;;0.70;;
27003;SDS011;14546;47.590;19.022;2024-03-29T05:20:26;3.20;;;0.93;;
27003;SDS011;14546;47.590;19.022;2024-03-29T05:22:52;2.13;;;0.90;;
27003;SDS011;14546;47.590;19.022;2024-03-29T05:25:19;2.65;;;1.08;;
27003;SDS011;14546;47.590;19.022;2024-03-29T05:27:45;0.88;;;0.60;;
27003;SDS011;14546;47.590;19.022;2024-03-29T05:30:11;1.50;;;0.73;;
27003;SDS011;14546;47.590;19.022;2024-03-29T05:32:38;3.30;;;1.13;;
27003;SDS011;14546;47.590;19.022;2024-03-29T05:35:04;1.00;;;0.77;;
27003;SDS011;14546;47.590;19.022;2024-03-29T05:37:30;1.67;;;0.82;;
27003;SDS011;14546;47.590;19.022;2024-03-29T05:39:56;1.02;;;0.70;;
27003;SDS011;14546;47.590;19.022;2024-03-29T05:42:28;2.08;;;0.90;;
27003;SDS011;14546;47.590;19.022;2024-03-29T05:44:55;0.95;;;0.82;;
27003;SDS011;14546;47.590;19.022;2024-03-29T05:47:21;1.02;;;0.77;;
27003;SDS011;14546;47.590;19.022;2024-03-29T05:49:47;1.27;;;1.13;;
27003;SDS011;14546;47.590;19.022;2024-03-29T05:52:13;1.75;;;0.98;;
27003;SDS011;14546;47.590;19.022;2024-03-29T05:54:39;1.13;;;0.85;;
27003;SDS011;14546;47.590;19.022;2024-03-29T05:57:05;7.32;;;1.08;;
27003;SDS011;14546;47.590;19.022;2024-03-29T05:59:34;1.23;;;1.10;;
27003;SDS011;14546;47.590;19.022;2024-03-29T06:02:01;2.50;;;1.05;;
27003;SDS011;14546;47.590;19.022;2024-03-29T06:04:28;1.70;;;1.60;;
27003;SDS011;14546;47.590;19.022;2024-03-29T06:07:03;3.97;;;1.55;;
27003;SDS011;14546;47.590;19.022;2024-03-29T06:09:29;2.72;;;2.22;;
27003;SDS011;14546;47.590;19.022;2024-03-29T06:11:56;3.33;;;1.88;;
27003;SDS011;14546;47.590;19.022;2024-03-29T06:14:22;3.97;;;2.60;;
27003;SDS011;14546;47.590;19.022;2024-03-29T06:17:07;4.82;;;2.60;;
27003;SDS011;14546;47.590;19.022;2024-03-29T06:22:17;4.35;;;2.88;;
27003;SDS011;14546;47.590;19.022;2024-03-29T06:24:43;3.75;;;2.83;;
27003;SDS011;14546;47.590;19.022;2024-03-29T06:27:10;5.57;;;2.60;;
27003;SDS011;14546;47.590;19.022;2024-03-29T06:29:37;5.03;;;2.60;;
27003;SDS011;14546;47.590;19.022;2024-03-29T06:32:03;4.40;;;2.60;;
27003;SDS011;14546;47.590;19.022;2024-03-29T06:34:30;4.70;;;3.03;;
27003;SDS011;14546;47.590;19.022;2024-03-29T06:36:56;4.18;;;2.92;;
27003;SDS011;14546;47.590;19.022;2024-03-29T06:39:22;5.20;;;2.80;;
27003;SDS011;14546;47.590;19.022;2024-03-29T06:41:47;3.78;;;2.83;;
27003;SDS011;14546;47.590;19.022;2024-03-29T06:44:13;3.03;;;2.30;;
27003;SDS011;14546;47.590;19.022;2024-03-29T06:46:40;3.63;;;2.33;;
27003;SDS011;14546;47.590;19.022;2024-03-29T06:49:09;6.63;;;3.55;;
27003;SDS011;14546;47.590;19.022;2024-03-29T06:51:42;4.50;;;2.40;;
27003;SDS011;14546;47.590;19.022;2024-03-29T06:54:15;3.45;;;2.20;;
27003;SDS011;14546;47.590;19.022;2024-03-29T06:56:54;2.75;;;2.00;;
27003;SDS011;14546;47.590;19.022;2024-03-29T06:59:28;2.20;;;1.70;;
27003;SDS011;14546;47.590;19.022;2024-03-29T07:01:59;3.83;;;2.10;;
27003;SDS011;14546;47.590;19.022;2024-03-29T07:04:28;3.38;;;2.00;;
27003;SDS011;14546;47.590;19.022;2024-03-29T07:07:04;6.38;;;1.83;;
27003;SDS011;14546;47.590;19.022;2024-03-29T07:09:33;2.38;;;1.95;;
27003;SDS011;14546;47.590;19.022;2024-03-29T07:12:04;2.38;;;1.70;;
27003;SDS011;14546;47.590;19.022;2024-03-29T07:14:31;2.85;;;1.90;;
27003;SDS011;14546;47.590;19.022;2024-03-29T07:17:03;3.08;;;1.80;;
27003;SDS011;14546;47.590;19.022;2024-03-29T07:19:30;3.42;;;1.65;;
27003;SDS011;14546;47.590;19.022;2024-03-29T07:21:57;3.83;;;1.88;;
27003;SDS011;14546;47.590;19.022;2024-03-29T07:24:25;2.72;;;1.60;;
27003;SDS011;14546;47.590;19.022;2024-03-29T07:26:52;1.98;;;1.50;;
27003;SDS011;14546;47.590;19.022;2024-03-29T07:29:21;3.95;;;1.75;;
27003;SDS011;14546;47.590;19.022;2024-03-29T07:31:51;2.25;;;1.70;;
27003;SDS011;14546;47.590;19.022;2024-03-29T07:34:21;3.03;;;1.73;;
27003;SDS011;14546;47.590;19.022;2024-03-29T07:36:51;5.00;;;1.70;;
27003;SDS011;14546;47.590;19.022;2024-03-29T07:39:19;2.28;;;1.40;;
27003;SDS011;14546;47.590;19.022;2024-03-29T07:41:48;2.63;;;1.40;;
27003;SDS011;14546;47.590;19.022;2024-03-29T07:44:19;2.33;;;1.77;;
27003;SDS011;14546;47.590;19.022;2024-03-29T07:46:51;2.60;;;1.75;;
27003;SDS011;14546;47.590;19.022;2024-03-29T07:49:17;4.15;;;1.50;;
27003;SDS011;14546;47.590;19.022;2024-03-29T07:51:49;2.70;;;1.50;;
27003;SDS011;14546;47.590;19.022;2024-03-29T07:54:20;3.13;;;1.50;;
27003;SDS011;14546;47.590;19.022;2024-03-29T07:56:55;1.63;;;1.42;;
27003;SDS011;14546;47.590;19.022;2024-03-29T07:59:25;5.95;;;1.52;;
27003;SDS011;14546;47.590;19.022;2024-03-29T08:01:55;5.00;;;1.27;;
27003;SDS011;14546;47.590;19.022;2024-03-29T08:04:30;4.93;;;1.48;;
27003;SDS011;14546;47.590;19.022;2024-03-29T08:07:04;2.55;;;0.90;;
27003;SDS011;14546;47.590;19.022;2024-03-29T08:09:34;1.77;;;1.02;;
27003;SDS011;14546;47.590;19.022;2024-03-29T08:12:08;2.22;;;1.15;;
27003;SDS011;14546;47.590;19.022;2024-03-29T08:15:00;2.70;;;1.10;;
27003;SDS011;14546;47.590;19.022;2024-03-29T08:17:34;3.15;;;1.23;;
27003;SDS011;14546;47.590;19.022;2024-03-29T08:20:07;1.02;;;0.82;;
27003;SDS011;14546;47.590;19.022;2024-03-29T08:22:37;1.80;;;1.00;;
27003;SDS011;14546;47.590;19.022;2024-03-29T08:25:08;0.95;;;0.80;;
27003;SDS011;14546;47.590;19.022;2024-03-29T08:27:36;2.47;;;0.95;;
27003;SDS011;14546;47.590;19.022;2024-03-29T08:30:09;3.25;;;0.90;;
27003;SDS011;14546;47.590;19.022;2024-03-29T08:32:42;2.05;;;0.90;;
27003;SDS011;14546;47.590;19.022;2024-03-29T08:35:14;7.32;;;2.58;;
27003;SDS011;14546;47.590;19.022;2024-03-29T08:37:45;4.38;;;1.67;;
27003;SDS011;14546;47.590;19.022;2024-03-29T08:40:21;0.88;;;0.75;;
27003;SDS011;14546;47.590;19.022;2024-03-29T08:42:59;2.65;;;0.80;;
27003;SDS011;14546;47.590;19.022;2024-03-29T08:48:04;1.88;;;0.90;;
27003;SDS011;14546;47.590;19.022;2024-03-29T08:50:36;4.43;;;1.35;;
27003;SDS011;14546;47.590;19.022;2024-03-29T08:53:07;7.88;;;5.38;;
27003;SDS011;14546;47.590;19.022;2024-03-29T08:55:33;1.85;;;0.70;;
27003;SDS011;14546;47.590;19.022;2024-03-29T08:58:07;3.10;;;0.60;;
27003;SDS011;14546;47.590;19.022;2024-03-29T09:00:41;3.40;;;0.90;;
27003;SDS011;14546;47.590;19.022;2024-03-29T09:03:12;2.92;;;0.82;;
27003;SDS011;14546;47.590;19.022;2024-03-29T09:05:42;0.65;;;0.60;;
27003;SDS011;14546;47.590;19.022;2024-03-29T09:08:11;2.40;;;0.73;;
27003;SDS011;14546;47.590;19.022;2024-03-29T09:10:40;2.03;;;1.00;;
27003;SDS011;14546;47.590;19.022;2024-03-29T09:13:10;4.45;;;0.95;;
27003;SDS011;14546;47.590;19.022;2024-03-29T09:15:44;1.60;;;1.30;;
27003;SDS011;14546;47.590;19.022;2024-03-29T09:18:14;6.85;;;1.20;;
27003;SDS011;14546;47.590;19.022;2024-03-29T09:20:58;3.75;;;1.10;;
27003;SDS011;14546;47.590;19.022;2024-03-29T09:23:29;2.63;;;1.15;;
27003;SDS011;14546;47.590;19.022;2024-03-29T09:26:04;2.33;;;0.98;;
27003;SDS011;14546;47.590;19.022;2024-03-29T09:28:33;3.88;;;1.08;;
27003;SDS011;14546;47.590;19.022;2024-03-29T09:31:08;3.10;;;0.77;;
27003;SDS011;14546;47.590;19.022;2024-03-29T09:33:37;2.67;;;0.63;;
27003;SDS011;14546;47.590;19.022;2024-03-29T09:36:06;1.80;;;0.90;;
27003;SDS011;14546;47.590;19.022;2024-03-29T09:38:40;1.40;;;0.60;;
27003;SDS011;14546;47.590;19.022;2024-03-29T09:43:47;1.15;;;0.60;;
27003;SDS011;14546;47.590;19.022;2024-03-29T09:46:17;2.60;;;0.50;;
27003;SDS011;14546;47.590;19.022;2024-03-29T09:48:48;0.77;;;0.40;;
27003;SDS011;14546;47.590;19.022;2024-03-29T09:51:18;0.90;;;0.40;;
27003;SDS011;14546;47.590;19.022;2024-03-29T09:53:45;0.88;;;0.50;;
27003;SDS011;14546;47.590;19.022;2024-03-29T09:56:13;0.75;;;0.40;;
27003;SDS011;14546;47.590;19.022;2024-03-29T09:59:05;0.93;;;0.50;;
27003;SDS011;14546;47.590;19.022;2024-03-29T10:01:34;1.38;;;0.40;;
27003;SDS011;14546;47.590;19.022;2024-03-29T10:04:02;3.28;;;0.50;;
27003;SDS011;14546;47.590;19.022;2024-03-29T10:06:34;6.43;;;0.60;;
27003;SDS011;14546;47.590;19.022;2024-03-29T10:09:03;1.42;;;0.70;;
27003;SDS011;14546;47.590;19.022;2024-03-29T10:11:31;2.08;;;0.93;;
27003;SDS011;14546;47.590;19.022;2024-03-29T10:13:59;3.40;;;0.98;;
27003;SDS011;14546;47.590;19.022;2024-03-29T10:16:31;9.63;;;2.33;;
27003;SDS011;14546;47.590;19.022;2024-03-29T10:19:03;2.30;;;1.10;;
27003;SDS011;14546;47.590;19.022;2024-03-29T10:21:33;3.90;;;1.05;;
27003;SDS011;14546;47.590;19.022;2024-03-29T10:24:14;3.30;;;1.15;;
27003;SDS011;14546;47.590;19.022;2024-03-29T10:26:44;3.38;;;1.00;;
27003;SDS011;14546;47.590;19.022;2024-03-29T10:29:15;2.03;;;1.20;;
27003;SDS011;14546;47.590;19.022;2024-03-29T10:31:45;3.42;;;1.10;;
27003;SDS011;14546;47.590;19.022;2024-03-29T10:34:17;1.77;;;1.20;;
27003;SDS011;14546;47.590;19.022;2024-03-29T10:36:44;2.28;;;1.10;;
27003;SDS011;14546;47.590;19.022;2024-03-29T10:39:15;1.88;;;0.77;;
27003;SDS011;14546;47.590;19.022;2024-03-29T10:41:46;1.33;;;0.77;;
27003;SDS011;14546;47.590;19.022;2024-03-29T10:44:15;1.98;;;0.90;;
27003;SDS011;14546;47.590;19.022;2024-03-29T10:46:41;2.90;;;0.90;;
27003;SDS011;14546;47.590;19.022;2024-03-29T10:49:10;4.07;;;2.28;;
27003;SDS011;14546;47.590;19.022;2024-03-29T10:51:40;1.70;;;0.73;;
27003;SDS011;14546;47.590;19.022;2024-03-29T10:54:12;2.88;;;0.98;;
27003;SDS011;14546;47.590;19.022;2024-03-29T10:56:40;4.80;;;0.70;;
27003;SDS011;14546;47.590;19.022;2024-03-29T10:59:18;2.88;;;0.70;;
27003;SDS011;14546;47.590;19.022;2024-03-29T11:01:52;3.20;;;0.90;;
27003;SDS011;14546;47.590;19.022;2024-03-29T11:04:28;8.82;;;1.25;;
27003;SDS011;14546;47.590;19.022;2024-03-29T11:06:57;2.22;;;1.15;;
27003;SDS011;14546;47.590;19.022;2024-03-29T11:09:30;2.28;;;0.93;;
27003;SDS011;14546;47.590;19.022;2024-03-29T11:12:03;3.15;;;1.15;;
27003;SDS011;14546;47.590;19.022;2024-03-29T11:14:37;3.45;;;1.30;;
27003;SDS011;14546;47.590;19.022;2024-03-29T11:17:25;7.55;;;1.30;;
27003;SDS011;14546;47.590;19.022;2024-03-29T11:19:55;2.97;;;0.95;;
27003;SDS011;14546;47.590;19.022;2024-03-29T11:22:27;2.65;;;1.00;;
27003;SDS011;14546;47.590;19.022;2024-03-29T11:24:56;4.35;;;1.20;;
27003;SDS011;14546;47.590;19.022;2024-03-29T11:27:25;4.03;;;1.38;;
27003;SDS011;14546;47.590;19.022;2024-03-29T11:29:54;2.60;;;0.90;;
27003;SDS011;14546;47.590;19.022;2024-03-29T11:32:38;6.75;;;1.30;;
27003;SDS011;14546;47.590;19.022;2024-03-29T11:35:14;5.20;;;1.73;;
27003;SDS011;14546;47.590;19.022;2024-03-29T11:37:45;3.22;;;1.27;;
27003;SDS011;14546;47.590;19.022;2024-03-29T11:40:13;5.53;;;1.63;;
27003;SDS011;14546;47.590;19.022;2024-03-29T11:42:47;18.88;;;1.17;;
27003;SDS011;14546;47.590;19.022;2024-03-29T11:45:15;2.42;;;1.10;;
27003;SDS011;14546;47.590;19.022;2024-03-29T11:47:49;11.13;;;1.38;;
27003;SDS011;14546;47.590;19.022;2024-03-29T11:50:25;6.57;;;1.30;;
27003;SDS011;14546;47.590;19.022;2024-03-29T11:52:53;7.60;;;1.15;;
27003;SDS011;14546;47.590;19.022;2024-03-29T11:55:30;3.53;;;1.90;;
27003;SDS011;14546;47.590;19.022;2024-03-29T11:57:59;5.05;;;1.38;;
27003;SDS011;14546;47.590;19.022;2024-03-29T12:00:28;5.10;;;1.83;;
27003;SDS011;14546;47.590;19.022;2024-03-29T12:03:01;4.95;;;1.50;;
27003;SDS011;14546;47.590;19.022;2024-03-29T12:05:36;6.72;;;1.88;;
27003;SDS011;14546;47.590;19.022;2024-03-29T12:08:07;3.83;;;1.33;;
27003;SDS011;14546;47.590;19.022;2024-03-29T12:10:38;5.32;;;1.50;;
27003;SDS011;14546;47.590;19.022;2024-03-29T12:13:09;4.95;;;1.50;;
27003;SDS011;14546;47.590;19.022;2024-03-29T12:15:44;7.07;;;1.63;;
27003;SDS011;14546;47.590;19.022;2024-03-29T12:18:13;6.82;;;1.60;;
27003;SDS011;14546;47.590;19.022;2024-03-29T12:20:48;8.15;;;2.20;;
27003;SDS011;14546;47.590;19.022;2024-03-29T12:23:21;7.05;;;1.80;;
27003;SDS011;14546;47.590;19.022;2024-03-29T12:25:54;10.85;;;2.00;;
27003;SDS011;14546;47.590;19.022;2024-03-29T12:28:26;8.52;;;2.33;;
27003;SDS011;14546;47.590;19.022;2024-03-29T12:30:57;5.13;;;1.75;;
27003;SDS011;14546;47.590;19.022;2024-03-29T12:33:28;6.78;;;1.92;;
27003;SDS011;14546;47.590;19.022;2024-03-29T12:35:57;8.25;;;1.90;;
27003;SDS011;14546;47.590;19.022;2024-03-29T12:38:27;6.45;;;1.90;;
27003;SDS011;14546;47.590;19.022;2024-03-29T12:40:56;5.35;;;1.63;;
27003;SDS011;14546;47.590;19.022;2024-03-29T12:43:23;5.75;;;1.80;;
27003;SDS011;14546;47.590;19.022;2024-03-29T12:45:53;8.63;;;2.17;;
27003;SDS011;14546;47.590;19.022;2024-03-29T12:48:21;7.15;;;1.80;;
27003;SDS011;14546;47.590;19.022;2024-03-29T12:50:49;10.65;;;1.67;;
27003;SDS011;14546;47.590;19.022;2024-03-29T12:53:20;8.35;;;1.90;;
27003;SDS011;14546;47.590;19.022;2024-03-29T12:55:51;9.63;;;3.20;;
27003;SDS011;14546;47.590;19.022;2024-03-29T12:58:20;15.13;;;1.92;;
27003;SDS011;14546;47.590;19.022;2024-03-29T13:00:50;8.82;;;2.17;;
27003;SDS011;14546;47.590;19.022;2024-03-29T13:03:18;13.80;;;1.90;;
27003;SDS011;14546;47.590;19.022;2024-03-29T13:05:48;8.65;;;1.83;;
27003;SDS011;14546;47.590;19.022;2024-03-29T13:08:21;9.38;;;1.83;;
27003;SDS011;14546;47.590;19.022;2024-03-29T13:10:49;9.63;;;1.98;;
27003;SDS011;14546;47.590;19.022;2024-03-29T13:13:19;11.65;;;2.00;;
27003;SDS011;14546;47.590;19.022;2024-03-29T13:15:54;6.65;;;1.77;;
27003;SDS011;14546;47.590;19.022;2024-03-29T13:18:25;10.13;;;2.45;;
27003;SDS011;14546;47.590;19.022;2024-03-29T13:20:53;7.65;;;2.05;;
27003;SDS011;14546;47.590;19.022;2024-03-29T13:23:27;10.02;;;2.05;;
27003;SDS011;14546;47.590;19.022;2024-03-29T13:25:57;11.23;;;2.10;;
27003;SDS011;14546;47.590;19.022;2024-03-29T13:28:27;9.93;;;2.22;;
27003;SDS011;14546;47.590;19.022;2024-03-29T13:30:57;5.88;;;2.10;;
27003;SDS011;14546;47.590;19.022;2024-03-29T13:33:27;8.32;;;2.03;;
27003;SDS011;14546;47.590;19.022;2024-03-29T13:35:58;10.68;;;2.13;;
27003;SDS011;14546;47.590;19.022;2024-03-29T13:38:30;10.80;;;2.00;;
27003;SDS011;14546;47.590;19.022;2024-03-29T13:40:57;22.08;;;2.45;;
27003;SDS011;14546;47.590;19.022;2024-03-29T13:43:29;8.68;;;2.13;;
27003;SDS011;14546;47.590;19.022;2024-03-29T13:45:59;6.97;;;1.67;;
27003;SDS011;14546;47.590;19.022;2024-03-29T13:48:29;12.55;;;2.38;;
27003;SDS011;14546;47.590;19.022;2024-03-29T13:50:58;17.38;;;3.03;;
27003;SDS011;14546;47.590;19.022;2024-03-29T13:53:25;10.10;;;2.50;;
27003;SDS011;14546;47.590;19.022;2024-03-29T13:56:05;9.75;;;2.17;;
27003;SDS011;14546;47.590;19.022;2024-03-29T13:58:35;15.55;;;2.10;;
27003;SDS011;14546;47.590;19.022;2024-03-29T14:01:02;12.98;;;2.38;;
27003;SDS011;14546;47.590;19.022;2024-03-29T14:03:31;9.52;;;2.22;;
27003;SDS011;14546;47.590;19.022;2024-03-29T14:06:00;11.45;;;2.03;;
27003;SDS011;14546;47.590;19.022;2024-03-29T14:08:51;14.38;;;2.08;;
27003;SDS011;14546;47.590;19.022;2024-03-29T14:11:18;12.23;;;2.63;;
27003;SDS011;14546;47.590;19.022;2024-03-29T14:13:45;12.90;;;2.72;;
27003;SDS011;14546;47.590;19.022;2024-03-29T14:16:16;8.68;;;2.30;;
27003;SDS011;14546;47.590;19.022;2024-03-29T14:18:43;10.35;;;2.00;;
27003;SDS011;14546;47.590;19.022;2024-03-29T14:21:11;9.38;;;2.50;;
27003;SDS011;14546;47.590;19.022;2024-03-29T14:23:41;9.48;;;2.10;;
27003;SDS011;14546;47.590;19.022;2024-03-29T14:26:10;8.80;;;2.25;;
27003;SDS011;14546;47.590;19.022;2024-03-29T14:28:40;11.48;;;2.50;;
27003;SDS011;14546;47.590;19.022;2024-03-29T14:31:10;9.80;;;2.13;;
27003;SDS011;14546;47.590;19.022;2024-03-29T14:33:37;8.68;;;2.17;;
27003;SDS011;14546;47.590;19.022;2024-03-29T14:36:07;12.60;;;2.08;;
27003;SDS011;14546;47.590;19.022;2024-03-29T14:38:36;7.53;;;2.13;;
27003;SDS011;14546;47.590;19.022;2024-03-29T14:41:05;8.82;;;2.00;;
27003;SDS011;14546;47.590;19.022;2024-03-29T14:43:36;13.25;;;2.08;;
27003;SDS011;14546;47.590;19.022;2024-03-29T14:46:04;11.75;;;2.05;;
27003;SDS011;14546;47.590;19.022;2024-03-29T14:48:31;12.35;;;2.13;;
27003;SDS011;14546;47.590;19.022;2024-03-29T14:50:58;8.40;;;1.90;;
27003;SDS011;14546;47.590;19.022;2024-03-29T14:53:27;11.55;;;2.13;;